sensor_id;sensor_type;location;lat;lon;timestamp;P1;durP1;ratioP1;P2;durP2;ratioP2
56391;SDS011;42289;53.582;9.714;2022-08-19T00:00:54;9.32;;;7.20;;
56391;SDS011;42289;53.582;9.714;2022-08-19T00:03:20;9.50;;;6.55;;
56391;SDS011;42289;53.582;9.714;2022-08-19T00:05:46;10.52;;;7.25;;
56391;SDS011;42289;53.582;9.714;2022-08-19T00:08:13;12.90;;;7.95;;
56391;SDS011;42289;53.582;9.714;2022-08-19T00:10:39;10.30;;;7.55;;
56391;SDS011;42289;53.582;9.714;2022-08-19T00:13:06;12.02;;;7.70;;
56391;SDS011;42289;53.582;9.714;2022-08-19T00:15:32;12.85;;;8.52;;
56391;SDS011;42289;53.582;9.714;2022-08-19T00:18:00;14.25;;;8.60;;
56391;SDS011;42289;53.582;9.714;2022-08-19T00:20:27;10.15;;;7.72;;
56391;SDS011;42289;53.582;9.714;2022-08-19T00:22:53;13.82;;;9.07;;
56391;SDS011;42289;53.582;9.714;2022-08-19T00:25:20;12.82;;;8.55;;
56391;SDS011;42289;53.582;9.714;2022-08-19T00:27:47;15.43;;;9.55;;
56391;SDS011;42289;53.582;9.714;2022-08-19T00:30:13;16.70;;;9.27;;
56391;SDS011;42289;53.582;9.714;2022-08-19T00:32:40;13.10;;;9.45;;
56391;SDS011;42289;53.582;9.714;2022-08-19T00:35:08;14.82;;;9.60;;
56391;SDS011;42289;53.582;9.714;2022-08-19T00:37:35;16.52;;;10.80;;
56391;SDS011;42289;53.582;9.714;2022-08-19T00:40:03;16.00;;;10.45;;
56391;SDS011;42289;53.582;9.714;2022-08-19T00:42:31;15.73;;;11.07;;
56391;SDS011;42289;53.582;9.714;2022-08-19T00:44:57;15.38;;;10.02;;
56391;SDS011;42289;53.582;9.714;2022-08-19T00:47:24;18.85;;;12.77;;
56391;SDS011;42289;53.582;9.714;2022-08-19T00:49:51;18.02;;;12.35;;
56391;SDS011;42289;53.582;9.714;2022-08-19T00:52:21;19.67;;;12.18;;
56391;SDS011;42289;53.582;9.714;2022-08-19T00:54:50;21.05;;;13.35;;
56391;SDS011;42289;53.582;9.714;2022-08-19T00:57:18;18.27;;;12.70;;
56391;SDS011;42289;53.582;9.714;2022-08-19T00:59:52;20.90;;;13.70;;
56391;SDS011;42289;53.582;9.714;2022-08-19T01:02:21;24.80;;;14.48;;
56391;SDS011;42289;53.582;9.714;2022-08-19T01:04:48;21.63;;;14.35;;
56391;SDS011;42289;53.582;9.714;2022-08-19T01:07:15;22.52;;;15.55;;
56391;SDS011;42289;53.582;9.714;2022-08-19T01:09:43;22.73;;;13.88;;
56391;SDS011;42289;53.582;9.714;2022-08-19T01:12:09;22.95;;;14.70;;
56391;SDS011;42289;53.582;9.714;2022-08-19T01:14:36;24.15;;;13.85;;
56391;SDS011;42289;53.582;9.714;2022-08-19T01:17:05;23.23;;;14.93;;
56391;SDS011;42289;53.582;9.714;2022-08-19T01:19:33;26.13;;;15.45;;
56391;SDS011;42289;53.582;9.714;2022-08-19T01:22:03;26.02;;;15.35;;
56391;SDS011;42289;53.582;9.714;2022-08-19T01:24:36;22.38;;;14.38;;
56391;SDS011;42289;53.582;9.714;2022-08-19T01:27:03;23.85;;;14.88;;
56391;SDS011;42289;53.582;9.714;2022-08-19T01:29:30;25.73;;;15.05;;
56391;SDS011;42289;53.582;9.714;2022-08-19T01:31:57;23.35;;;13.65;;
56391;SDS011;42289;53.582;9.714;2022-08-19T01:34:23;21.55;;;14.23;;
56391;SDS011;42289;53.582;9.714;2022-08-19T01:36:50;24.48;;;15.48;;
56391;SDS011;42289;53.582;9.714;2022-08-19T01:39:17;23.80;;;14.57;;
56391;SDS011;42289;53.582;9.714;2022-08-19T01:41:48;24.63;;;15.93;;
56391;SDS011;42289;53.582;9.714;2022-08-19T01:44:15;25.63;;;16.35;;
56391;SDS011;42289;53.582;9.714;2022-08-19T01:46:42;24.30;;;15.73;;
56391;SDS011;42289;53.582;9.714;2022-08-19T01:49:12;26.00;;;16.25;;
56391;SDS011;42289;53.582;9.714;2022-08-19T01:51:38;27.00;;;16.88;;
56391;SDS011;42289;53.582;9.714;2022-08-19T01:54:04;30.55;;;18.38;;
56391;SDS011;42289;53.582;9.714;2022-08-19T01:56:31;29.48;;;17.40;;
56391;SDS011;42289;53.582;9.714;2022-08-19T01:59:00;34.10;;;18.20;;
56391;SDS011;42289;53.582;9.714;2022-08-19T02:01:29;36.22;;;18.27;;
56391;SDS011;42289;53.582;9.714;2022-08-19T02:03:56;35.17;;;17.85;;
56391;SDS011;42289;53.582;9.714;2022-08-19T02:06:23;35.80;;;17.65;;
56391;SDS011;42289;53.582;9.714;2022-08-19T02:08:49;34.92;;;18.08;;
56391;SDS011;42289;53.582;9.714;2022-08-19T02:11:19;35.67;;;17.05;;
56391;SDS011;42289;53.582;9.714;2022-08-19T02:13:47;34.42;;;18.00;;
56391;SDS011;42289;53.582;9.714;2022-08-19T02:16:15;31.55;;;16.70;;
56391;SDS011;42289;53.582;9.714;2022-08-19T02:18:42;32.72;;;16.42;;
56391;SDS011;42289;53.582;9.714;2022-08-19T02:21:08;27.52;;;15.38;;
56391;SDS011;42289;53.582;9.714;2022-08-19T02:23:35;28.95;;;14.95;;
56391;SDS011;42289;53.582;9.714;2022-08-19T02:26:02;23.08;;;14.00;;
56391;SDS011;42289;53.582;9.714;2022-08-19T02:28:28;28.50;;;15.52;;
56391;SDS011;42289;53.582;9.714;2022-08-19T02:30:55;24.95;;;14.63;;
56391;SDS011;42289;53.582;9.714;2022-08-19T02:33:22;28.63;;;15.15;;
56391;SDS011;42289;53.582;9.714;2022-08-19T02:35:49;26.98;;;15.10;;
56391;SDS011;42289;53.582;9.714;2022-08-19T02:38:15;33.15;;;16.00;;
56391;SDS011;42289;53.582;9.714;2022-08-19T02:40:50;31.05;;;16.40;;
56391;SDS011;42289;53.582;9.714;2022-08-19T02:43:18;30.48;;;16.92;;
56391;SDS011;42289;53.582;9.714;2022-08-19T02:45:46;31.95;;;17.20;;
56391;SDS011;42289;53.582;9.714;2022-08-19T02:48:14;28.33;;;18.17;;
56391;SDS011;42289;53.582;9.714;2022-08-19T02:50:43;31.77;;;18.90;;
56391;SDS011;42289;53.582;9.714;2022-08-19T02:53:10;33.33;;;18.88;;
56391;SDS011;42289;53.582;9.714;2022-08-19T02:55:42;33.55;;;18.20;;
56391;SDS011;42289;53.582;9.714;2022-08-19T02:58:09;32.53;;;18.38;;
56391;SDS011;42289;53.582;9.714;2022-08-19T03:00:40;33.58;;;17.35;;
56391;SDS011;42289;53.582;9.714;2022-08-19T03:03:08;26.20;;;15.50;;
56391;SDS011;42289;53.582;9.714;2022-08-19T03:05:35;26.50;;;14.93;;
56391;SDS011;42289;53.582;9.714;2022-08-19T03:08:03;25.83;;;15.20;;
56391;SDS011;42289;53.582;9.714;2022-08-19T03:10:30;21.90;;;12.90;;
56391;SDS011;42289;53.582;9.714;2022-08-19T03:12:57;19.92;;;12.02;;
56391;SDS011;42289;53.582;9.714;2022-08-19T03:15:23;21.48;;;11.90;;
56391;SDS011;42289;53.582;9.714;2022-08-19T03:17:51;17.80;;;11.18;;
56391;SDS011;42289;53.582;9.714;2022-08-19T03:20:17;17.83;;;10.75;;
56391;SDS011;42289;53.582;9.714;2022-08-19T03:22:44;21.25;;;12.50;;
56391;SDS011;42289;53.582;9.714;2022-08-19T03:25:12;19.50;;;11.55;;
56391;SDS011;42289;53.582;9.714;2022-08-19T03:27:39;20.08;;;12.07;;
56391;SDS011;42289;53.582;9.714;2022-08-19T03:30:05;21.00;;;12.50;;
56391;SDS011;42289;53.582;9.714;2022-08-19T03:32:33;20.92;;;13.02;;
56391;SDS011;42289;53.582;9.714;2022-08-19T03:35:00;22.58;;;14.18;;
56391;SDS011;42289;53.582;9.714;2022-08-19T03:37:27;29.00;;;15.43;;
56391;SDS011;42289;53.582;9.714;2022-08-19T03:39:53;27.42;;;14.25;;
56391;SDS011;42289;53.582;9.714;2022-08-19T03:42:21;25.63;;;13.63;;
56391;SDS011;42289;53.582;9.714;2022-08-19T03:44:48;25.95;;;14.30;;
56391;SDS011;42289;53.582;9.714;2022-08-19T03:47:14;21.50;;;11.48;;
56391;SDS011;42289;53.582;9.714;2022-08-19T03:49:41;21.80;;;12.30;;
56391;SDS011;42289;53.582;9.714;2022-08-19T03:52:08;20.08;;;11.18;;
56391;SDS011;42289;53.582;9.714;2022-08-19T03:54:34;20.50;;;11.18;;
56391;SDS011;42289;53.582;9.714;2022-08-19T03:57:03;21.25;;;11.40;;
56391;SDS011;42289;53.582;9.714;2022-08-19T03:59:32;19.33;;;10.75;;
56391;SDS011;42289;53.582;9.714;2022-08-19T04:02:01;22.58;;;11.20;;
56391;SDS011;42289;53.582;9.714;2022-08-19T04:04:32;20.10;;;12.15;;
56391;SDS011;42289;53.582;9.714;2022-08-19T04:06:59;20.10;;;10.65;;
56391;SDS011;42289;53.582;9.714;2022-08-19T04:09:25;19.85;;;11.50;;
56391;SDS011;42289;53.582;9.714;2022-08-19T04:11:53;21.25;;;12.48;;
56391;SDS011;42289;53.582;9.714;2022-08-19T04:14:22;21.45;;;12.13;;
56391;SDS011;42289;53.582;9.714;2022-08-19T04:16:52;18.67;;;12.35;;
56391;SDS011;42289;53.582;9.714;2022-08-19T04:19:19;19.98;;;12.18;;
56391;SDS011;42289;53.582;9.714;2022-08-19T04:21:46;21.23;;;11.75;;
56391;SDS011;42289;53.582;9.714;2022-08-19T04:24:15;20.20;;;11.40;;
56391;SDS011;42289;53.582;9.714;2022-08-19T04:26:42;17.00;;;10.68;;
56391;SDS011;42289;53.582;9.714;2022-08-19T04:29:09;19.42;;;10.90;;
56391;SDS011;42289;53.582;9.714;2022-08-19T04:31:37;16.30;;;10.43;;
56391;SDS011;42289;53.582;9.714;2022-08-19T04:34:07;20.77;;;10.60;;
56391;SDS011;42289;53.582;9.714;2022-08-19T04:36:36;14.35;;;9.65;;
56391;SDS011;42289;53.582;9.714;2022-08-19T04:39:06;18.90;;;10.40;;
56391;SDS011;42289;53.582;9.714;2022-08-19T04:41:34;17.95;;;9.75;;
56391;SDS011;42289;53.582;9.714;2022-08-19T04:44:19;21.92;;;9.95;;
56391;SDS011;42289;53.582;9.714;2022-08-19T04:46:46;14.38;;;9.65;;
56391;SDS011;42289;53.582;9.714;2022-08-19T04:49:15;19.45;;;9.18;;
56391;SDS011;42289;53.582;9.714;2022-08-19T04:51:43;17.15;;;9.18;;
56391;SDS011;42289;53.582;9.714;2022-08-19T04:54:12;23.02;;;9.77;;
56391;SDS011;42289;53.582;9.714;2022-08-19T04:56:39;16.70;;;9.65;;
56391;SDS011;42289;53.582;9.714;2022-08-19T04:59:06;18.13;;;9.88;;
56391;SDS011;42289;53.582;9.714;2022-08-19T05:01:33;17.45;;;9.32;;
56391;SDS011;42289;53.582;9.714;2022-08-19T05:04:01;20.38;;;10.45;;
56391;SDS011;42289;53.582;9.714;2022-08-19T05:06:31;18.30;;;9.93;;
56391;SDS011;42289;53.582;9.714;2022-08-19T05:08:59;20.25;;;9.38;;
56391;SDS011;42289;53.582;9.714;2022-08-19T05:11:26;16.00;;;9.48;;
56391;SDS011;42289;53.582;9.714;2022-08-19T05:13:55;18.30;;;9.10;;
56391;SDS011;42289;53.582;9.714;2022-08-19T05:16:22;16.05;;;8.77;;
56391;SDS011;42289;53.582;9.714;2022-08-19T05:18:51;13.88;;;8.27;;
56391;SDS011;42289;53.582;9.714;2022-08-19T05:21:48;15.27;;;9.20;;
56391;SDS011;42289;53.582;9.714;2022-08-19T05:24:32;15.93;;;8.57;;
56391;SDS011;42289;53.582;9.714;2022-08-19T05:26:59;12.55;;;8.68;;
56391;SDS011;42289;53.582;9.714;2022-08-19T05:29:27;18.85;;;9.20;;
56391;SDS011;42289;53.582;9.714;2022-08-19T05:31:56;19.58;;;8.52;;
56391;SDS011;42289;53.582;9.714;2022-08-19T05:34:24;16.13;;;8.93;;
56391;SDS011;42289;53.582;9.714;2022-08-19T05:36:53;18.70;;;9.07;;
56391;SDS011;42289;53.582;9.714;2022-08-19T05:39:22;16.42;;;8.55;;
56391;SDS011;42289;53.582;9.714;2022-08-19T05:41:51;17.63;;;8.38;;
56391;SDS011;42289;53.582;9.714;2022-08-19T05:44:22;17.10;;;9.52;;
56391;SDS011;42289;53.582;9.714;2022-08-19T05:46:49;15.60;;;8.88;;
56391;SDS011;42289;53.582;9.714;2022-08-19T05:49:18;14.25;;;8.73;;
56391;SDS011;42289;53.582;9.714;2022-08-19T05:51:46;16.75;;;9.27;;
56391;SDS011;42289;53.582;9.714;2022-08-19T05:54:14;16.58;;;8.70;;
56391;SDS011;42289;53.582;9.714;2022-08-19T05:56:41;14.50;;;8.55;;
56391;SDS011;42289;53.582;9.714;2022-08-19T05:59:09;12.38;;;8.02;;
56391;SDS011;42289;53.582;9.714;2022-08-19T06:01:37;14.15;;;8.07;;
56391;SDS011;42289;53.582;9.714;2022-08-19T06:04:04;14.63;;;8.02;;
56391;SDS011;42289;53.582;9.714;2022-08-19T06:06:31;16.80;;;7.72;;
56391;SDS011;42289;53.582;9.714;2022-08-19T06:08:59;12.90;;;7.78;;
56391;SDS011;42289;53.582;9.714;2022-08-19T06:11:33;12.02;;;7.50;;
56391;SDS011;42289;53.582;9.714;2022-08-19T06:14:02;13.98;;;7.47;;
56391;SDS011;42289;53.582;9.714;2022-08-19T06:16:33;11.45;;;7.40;;
56391;SDS011;42289;53.582;9.714;2022-08-19T06:19:01;13.35;;;7.18;;
56391;SDS011;42289;53.582;9.714;2022-08-19T06:21:31;13.98;;;7.00;;
56391;SDS011;42289;53.582;9.714;2022-08-19T06:23:58;11.60;;;6.35;;
56391;SDS011;42289;53.582;9.714;2022-08-19T06:26:25;13.73;;;7.20;;
56391;SDS011;42289;53.582;9.714;2022-08-19T06:28:54;12.60;;;6.90;;
56391;SDS011;42289;53.582;9.714;2022-08-19T06:31:22;11.57;;;6.75;;
56391;SDS011;42289;53.582;9.714;2022-08-19T06:33:50;11.45;;;7.18;;
56391;SDS011;42289;53.582;9.714;2022-08-19T06:36:17;11.52;;;7.30;;
56391;SDS011;42289;53.582;9.714;2022-08-19T06:38:52;11.20;;;7.05;;
56391;SDS011;42289;53.582;9.714;2022-08-19T06:41:18;15.48;;;6.93;;
56391;SDS011;42289;53.582;9.714;2022-08-19T06:43:45;9.35;;;6.10;;
56391;SDS011;42289;53.582;9.714;2022-08-19T06:46:15;12.38;;;6.32;;
56391;SDS011;42289;53.582;9.714;2022-08-19T06:48:43;10.00;;;6.53;;
56391;SDS011;42289;53.582;9.714;2022-08-19T06:51:10;10.25;;;5.88;;
56391;SDS011;42289;53.582;9.714;2022-08-19T06:53:37;10.70;;;6.07;;
56391;SDS011;42289;53.582;9.714;2022-08-19T06:56:04;11.45;;;6.68;;
56391;SDS011;42289;53.582;9.714;2022-08-19T06:58:31;10.30;;;6.30;;
56391;SDS011;42289;53.582;9.714;2022-08-19T07:00:58;12.82;;;6.55;;
56391;SDS011;42289;53.582;9.714;2022-08-19T07:03:28;9.13;;;6.20;;
56391;SDS011;42289;53.582;9.714;2022-08-19T07:05:57;13.05;;;6.60;;
56391;SDS011;42289;53.582;9.714;2022-08-19T07:08:24;8.32;;;6.00;;
56391;SDS011;42289;53.582;9.714;2022-08-19T07:10:52;9.30;;;5.72;;
56391;SDS011;42289;53.582;9.714;2022-08-19T07:13:19;10.02;;;6.38;;
56391;SDS011;42289;53.582;9.714;2022-08-19T07:15:47;11.65;;;6.25;;
56391;SDS011;42289;53.582;9.714;2022-08-19T07:18:15;11.15;;;6.82;;
56391;SDS011;42289;53.582;9.714;2022-08-19T07:20:43;12.38;;;7.03;;
56391;SDS011;42289;53.582;9.714;2022-08-19T07:23:09;13.15;;;7.78;;
56391;SDS011;42289;53.582;9.714;2022-08-19T07:25:36;12.82;;;7.15;;
56391;SDS011;42289;53.582;9.714;2022-08-19T07:28:03;11.05;;;7.00;;
56391;SDS011;42289;53.582;9.714;2022-08-19T07:30:30;11.68;;;6.95;;
56391;SDS011;42289;53.582;9.714;2022-08-19T07:32:57;10.70;;;7.35;;
56391;SDS011;42289;53.582;9.714;2022-08-19T07:35:23;12.35;;;7.20;;
56391;SDS011;42289;53.582;9.714;2022-08-19T07:37:52;11.57;;;7.20;;
56391;SDS011;42289;53.582;9.714;2022-08-19T07:40:18;11.70;;;7.40;;
56391;SDS011;42289;53.582;9.714;2022-08-19T07:42:44;14.55;;;7.95;;
56391;SDS011;42289;53.582;9.714;2022-08-19T07:45:11;12.20;;;7.63;;
56391;SDS011;42289;53.582;9.714;2022-08-19T07:47:38;13.00;;;7.85;;
56391;SDS011;42289;53.582;9.714;2022-08-19T07:50:05;12.20;;;7.68;;
56391;SDS011;42289;53.582;9.714;2022-08-19T07:52:35;14.25;;;7.93;;
56391;SDS011;42289;53.582;9.714;2022-08-19T07:55:06;14.77;;;8.25;;
56391;SDS011;42289;53.582;9.714;2022-08-19T07:57:34;14.48;;;8.88;;
56391;SDS011;42289;53.582;9.714;2022-08-19T08:00:03;15.05;;;8.00;;
56391;SDS011;42289;53.582;9.714;2022-08-19T08:02:30;11.80;;;8.43;;
56391;SDS011;42289;53.582;9.714;2022-08-19T08:04:57;14.90;;;8.75;;
56391;SDS011;42289;53.582;9.714;2022-08-19T08:07:41;12.40;;;7.93;;
56391;SDS011;42289;53.582;9.714;2022-08-19T08:12:52;16.83;;;8.70;;
56391;SDS011;42289;53.582;9.714;2022-08-19T08:15:20;16.27;;;9.10;;
56391;SDS011;42289;53.582;9.714;2022-08-19T08:17:47;14.65;;;8.70;;
56391;SDS011;42289;53.582;9.714;2022-08-19T08:20:13;14.70;;;9.70;;
56391;SDS011;42289;53.582;9.714;2022-08-19T08:22:42;15.70;;;9.90;;
56391;SDS011;42289;53.582;9.714;2022-08-19T08:25:28;13.80;;;9.30;;
56391;SDS011;42289;53.582;9.714;2022-08-19T08:27:56;12.80;;;8.77;;
56391;SDS011;42289;53.582;9.714;2022-08-19T08:30:25;16.58;;;8.88;;
56391;SDS011;42289;53.582;9.714;2022-08-19T08:32:53;15.25;;;8.85;;
56391;SDS011;42289;53.582;9.714;2022-08-19T08:35:21;13.13;;;8.43;;
56391;SDS011;42289;53.582;9.714;2022-08-19T08:37:49;12.93;;;8.18;;
56391;SDS011;42289;53.582;9.714;2022-08-19T08:40:19;15.95;;;8.40;;
56391;SDS011;42289;53.582;9.714;2022-08-19T08:42:50;14.43;;;8.02;;
56391;SDS011;42289;53.582;9.714;2022-08-19T08:45:25;12.90;;;8.43;;
56391;SDS011;42289;53.582;9.714;2022-08-19T08:47:53;14.93;;;8.57;;
56391;SDS011;42289;53.582;9.714;2022-08-19T08:50:26;12.18;;;8.45;;
56391;SDS011;42289;53.582;9.714;2022-08-19T08:53:00;14.95;;;9.43;;
56391;SDS011;42289;53.582;9.714;2022-08-19T08:55:28;12.32;;;8.85;;
56391;SDS011;42289;53.582;9.714;2022-08-19T08:57:58;14.05;;;9.10;;
56391;SDS011;42289;53.582;9.714;2022-08-19T09:00:28;13.55;;;9.15;;
56391;SDS011;42289;53.582;9.714;2022-08-19T09:02:58;17.58;;;9.05;;
56391;SDS011;42289;53.582;9.714;2022-08-19T09:05:27;14.13;;;9.35;;
56391;SDS011;42289;53.582;9.714;2022-08-19T09:08:02;12.60;;;8.90;;
56391;SDS011;42289;53.582;9.714;2022-08-19T09:10:34;14.40;;;8.73;;
56391;SDS011;42289;53.582;9.714;2022-08-19T09:13:07;16.33;;;9.57;;
56391;SDS011;42289;53.582;9.714;2022-08-19T09:15:40;15.30;;;10.20;;
56391;SDS011;42289;53.582;9.714;2022-08-19T09:18:10;14.13;;;9.05;;
56391;SDS011;42289;53.582;9.714;2022-08-19T09:20:37;14.90;;;10.02;;
56391;SDS011;42289;53.582;9.714;2022-08-19T09:23:03;16.42;;;10.38;;
56391;SDS011;42289;53.582;9.714;2022-08-19T09:25:30;15.57;;;10.25;;
56391;SDS011;42289;53.582;9.714;2022-08-19T09:27:59;17.25;;;10.00;;
56391;SDS011;42289;53.582;9.714;2022-08-19T09:30:29;16.58;;;10.63;;
56391;SDS011;42289;53.582;9.714;2022-08-19T09:32:57;18.13;;;10.30;;
56391;SDS011;42289;53.582;9.714;2022-08-19T09:35:25;17.77;;;11.02;;
56391;SDS011;42289;53.582;9.714;2022-08-19T09:37:53;22.10;;;12.68;;
56391;SDS011;42289;53.582;9.714;2022-08-19T09:40:20;18.40;;;10.75;;
56391;SDS011;42289;53.582;9.714;2022-08-19T09:42:46;20.10;;;11.93;;
56391;SDS011;42289;53.582;9.714;2022-08-19T09:45:13;20.45;;;11.45;;
56391;SDS011;42289;53.582;9.714;2022-08-19T09:47:41;18.02;;;11.65;;
56391;SDS011;42289;53.582;9.714;2022-08-19T09:50:09;16.33;;;10.63;;
56391;SDS011;42289;53.582;9.714;2022-08-19T09:52:37;20.88;;;11.48;;
56391;SDS011;42289;53.582;9.714;2022-08-19T09:55:04;18.33;;;11.07;;
56391;SDS011;42289;53.582;9.714;2022-08-19T09:57:31;21.40;;;11.80;;
56391;SDS011;42289;53.582;9.714;2022-08-19T10:00:00;19.17;;;11.35;;
56391;SDS011;42289;53.582;9.714;2022-08-19T10:02:27;17.10;;;11.02;;
56391;SDS011;42289;53.582;9.714;2022-08-19T10:04:57;18.63;;;12.27;;
56391;SDS011;42289;53.582;9.714;2022-08-19T10:07:40;20.67;;;12.27;;
56391;SDS011;42289;53.582;9.714;2022-08-19T10:10:07;21.05;;;12.52;;
56391;SDS011;42289;53.582;9.714;2022-08-19T10:12:35;22.25;;;13.38;;
56391;SDS011;42289;53.582;9.714;2022-08-19T10:15:02;20.70;;;12.77;;
56391;SDS011;42289;53.582;9.714;2022-08-19T10:17:31;21.50;;;12.55;;
56391;SDS011;42289;53.582;9.714;2022-08-19T10:19:59;19.55;;;12.45;;
56391;SDS011;42289;53.582;9.714;2022-08-19T10:22:27;18.77;;;11.90;;
56391;SDS011;42289;53.582;9.714;2022-08-19T10:24:53;14.38;;;10.35;;
56391;SDS011;42289;53.582;9.714;2022-08-19T10:27:21;18.23;;;11.55;;
56391;SDS011;42289;53.582;9.714;2022-08-19T10:29:47;26.17;;;13.27;;
56391;SDS011;42289;53.582;9.714;2022-08-19T10:32:14;19.55;;;12.57;;
56391;SDS011;42289;53.582;9.714;2022-08-19T10:34:40;16.65;;;11.65;;
56391;SDS011;42289;53.582;9.714;2022-08-19T10:37:08;17.50;;;11.32;;
56391;SDS011;42289;53.582;9.714;2022-08-19T10:39:35;20.02;;;11.90;;
56391;SDS011;42289;53.582;9.714;2022-08-19T10:42:04;16.90;;;11.57;;
56391;SDS011;42289;53.582;9.714;2022-08-19T10:44:32;18.27;;;11.55;;
56391;SDS011;42289;53.582;9.714;2022-08-19T10:47:00;20.88;;;11.75;;
56391;SDS011;42289;53.582;9.714;2022-08-19T10:49:27;19.90;;;12.65;;
56391;SDS011;42289;53.582;9.714;2022-08-19T10:51:53;16.98;;;11.15;;
56391;SDS011;42289;53.582;9.714;2022-08-19T10:54:39;22.77;;;13.07;;
56391;SDS011;42289;53.582;9.714;2022-08-19T10:57:22;20.95;;;12.13;;
56391;SDS011;42289;53.582;9.714;2022-08-19T10:59:54;18.50;;;12.75;;
56391;SDS011;42289;53.582;9.714;2022-08-19T11:02:20;23.42;;;14.07;;
56391;SDS011;42289;53.582;9.714;2022-08-19T11:04:46;22.60;;;15.00;;
56391;SDS011;42289;53.582;9.714;2022-08-19T11:07:14;21.05;;;13.57;;
56391;SDS011;42289;53.582;9.714;2022-08-19T11:09:43;22.40;;;15.07;;
56391;SDS011;42289;53.582;9.714;2022-08-19T11:12:11;20.80;;;14.20;;
56391;SDS011;42289;53.582;9.714;2022-08-19T11:14:40;21.92;;;14.45;;
56391;SDS011;42289;53.582;9.714;2022-08-19T11:17:06;20.05;;;14.05;;
56391;SDS011;42289;53.582;9.714;2022-08-19T11:19:33;22.23;;;14.30;;
56391;SDS011;42289;53.582;9.714;2022-08-19T11:22:00;22.63;;;14.43;;
56391;SDS011;42289;53.582;9.714;2022-08-19T11:24:28;20.00;;;14.00;;
56391;SDS011;42289;53.582;9.714;2022-08-19T11:27:02;18.67;;;13.60;;
56391;SDS011;42289;53.582;9.714;2022-08-19T11:29:31;23.05;;;15.00;;
56391;SDS011;42289;53.582;9.714;2022-08-19T11:31:59;19.65;;;13.80;;
56391;SDS011;42289;53.582;9.714;2022-08-19T11:34:27;18.77;;;13.82;;
56391;SDS011;42289;53.582;9.714;2022-08-19T11:36:55;21.98;;;14.43;;
56391;SDS011;42289;53.582;9.714;2022-08-19T11:39:23;18.83;;;14.05;;
56391;SDS011;42289;53.582;9.714;2022-08-19T11:41:51;18.33;;;13.95;;
56391;SDS011;42289;53.582;9.714;2022-08-19T11:44:19;19.70;;;14.90;;
56391;SDS011;42289;53.582;9.714;2022-08-19T11:46:45;18.42;;;13.60;;
56391;SDS011;42289;53.582;9.714;2022-08-19T11:49:12;17.92;;;13.43;;
56391;SDS011;42289;53.582;9.714;2022-08-19T11:51:39;21.23;;;14.40;;
56391;SDS011;42289;53.582;9.714;2022-08-19T11:54:07;16.75;;;12.35;;
56391;SDS011;42289;53.582;9.714;2022-08-19T11:56:34;18.58;;;14.70;;
56391;SDS011;42289;53.582;9.714;2022-08-19T11:59:00;19.30;;;13.63;;
56391;SDS011;42289;53.582;9.714;2022-08-19T12:01:29;16.80;;;12.93;;
56391;SDS011;42289;53.582;9.714;2022-08-19T12:03:56;19.45;;;14.35;;
56391;SDS011;42289;53.582;9.714;2022-08-19T12:06:26;18.27;;;13.38;;
56391;SDS011;42289;53.582;9.714;2022-08-19T12:08:54;15.75;;;11.40;;
56391;SDS011;42289;53.582;9.714;2022-08-19T12:11:22;15.73;;;12.30;;
56391;SDS011;42289;53.582;9.714;2022-08-19T12:13:49;15.18;;;10.77;;
56391;SDS011;42289;53.582;9.714;2022-08-19T12:16:17;15.52;;;11.40;;
56391;SDS011;42289;53.582;9.714;2022-08-19T12:18:50;12.02;;;9.32;;
56391;SDS011;42289;53.582;9.714;2022-08-19T12:21:17;14.65;;;10.68;;
56391;SDS011;42289;53.582;9.714;2022-08-19T12:23:47;14.38;;;11.38;;
56391;SDS011;42289;53.582;9.714;2022-08-19T12:26:14;17.40;;;12.55;;
56391;SDS011;42289;53.582;9.714;2022-08-19T12:28:42;15.02;;;12.05;;
56391;SDS011;42289;53.582;9.714;2022-08-19T12:31:08;15.75;;;10.70;;
56391;SDS011;42289;53.582;9.714;2022-08-19T12:33:37;16.45;;;10.98;;
56391;SDS011;42289;53.582;9.714;2022-08-19T12:36:06;13.30;;;10.13;;
56391;SDS011;42289;53.582;9.714;2022-08-19T12:38:34;15.45;;;11.30;;
56391;SDS011;42289;53.582;9.714;2022-08-19T12:41:02;13.75;;;10.55;;
56391;SDS011;42289;53.582;9.714;2022-08-19T12:43:32;13.10;;;10.45;;
56391;SDS011;42289;53.582;9.714;2022-08-19T12:45:59;13.52;;;10.60;;
56391;SDS011;42289;53.582;9.714;2022-08-19T12:48:26;12.15;;;9.82;;
56391;SDS011;42289;53.582;9.714;2022-08-19T12:50:52;12.40;;;10.05;;
56391;SDS011;42289;53.582;9.714;2022-08-19T12:53:20;13.10;;;10.45;;
56391;SDS011;42289;53.582;9.714;2022-08-19T12:55:47;14.52;;;11.13;;
56391;SDS011;42289;53.582;9.714;2022-08-19T12:58:13;14.70;;;11.50;;
56391;SDS011;42289;53.582;9.714;2022-08-19T13:00:39;14.38;;;10.77;;
56391;SDS011;42289;53.582;9.714;2022-08-19T13:03:06;14.73;;;10.82;;
56391;SDS011;42289;53.582;9.714;2022-08-19T13:05:33;14.88;;;11.13;;
56391;SDS011;42289;53.582;9.714;2022-08-19T13:08:00;13.18;;;9.45;;
56391;SDS011;42289;53.582;9.714;2022-08-19T13:10:29;17.52;;;10.25;;
56391;SDS011;42289;53.582;9.714;2022-08-19T13:13:00;13.30;;;10.43;;
56391;SDS011;42289;53.582;9.714;2022-08-19T13:15:28;13.25;;;9.85;;
56391;SDS011;42289;53.582;9.714;2022-08-19T13:17:57;12.18;;;9.75;;
56391;SDS011;42289;53.582;9.714;2022-08-19T13:20:23;10.63;;;9.00;;
56391;SDS011;42289;53.582;9.714;2022-08-19T13:22:51;10.73;;;8.30;;
56391;SDS011;42289;53.582;9.714;2022-08-19T13:25:17;14.32;;;9.68;;
56391;SDS011;42289;53.582;9.714;2022-08-19T13:27:46;10.80;;;8.75;;
56391;SDS011;42289;53.582;9.714;2022-08-19T13:30:14;12.68;;;9.43;;
56391;SDS011;42289;53.582;9.714;2022-08-19T13:33:00;13.95;;;9.90;;
56391;SDS011;42289;53.582;9.714;2022-08-19T13:35:40;12.88;;;9.43;;
56391;SDS011;42289;53.582;9.714;2022-08-19T13:38:09;12.40;;;9.50;;
56391;SDS011;42289;53.582;9.714;2022-08-19T13:40:36;9.70;;;7.10;;
56391;SDS011;42289;53.582;9.714;2022-08-19T13:43:04;12.73;;;8.20;;
56391;SDS011;42289;53.582;9.714;2022-08-19T13:45:32;8.82;;;7.32;;
56391;SDS011;42289;53.582;9.714;2022-08-19T13:48:00;10.50;;;7.90;;
56391;SDS011;42289;53.582;9.714;2022-08-19T13:50:30;8.27;;;6.53;;
56391;SDS011;42289;53.582;9.714;2022-08-19T13:52:57;11.38;;;9.73;;
56391;SDS011;42289;53.582;9.714;2022-08-19T13:55:24;10.07;;;7.00;;
56391;SDS011;42289;53.582;9.714;2022-08-19T13:57:50;8.93;;;7.60;;
56391;SDS011;42289;53.582;9.714;2022-08-19T14:00:19;7.93;;;6.50;;
56391;SDS011;42289;53.582;9.714;2022-08-19T14:02:47;8.70;;;7.03;;
56391;SDS011;42289;53.582;9.714;2022-08-19T14:05:16;10.73;;;7.45;;
56391;SDS011;42289;53.582;9.714;2022-08-19T14:07:43;9.23;;;7.20;;
56391;SDS011;42289;53.582;9.714;2022-08-19T14:10:10;11.18;;;7.35;;
56391;SDS011;42289;53.582;9.714;2022-08-19T14:12:39;8.52;;;6.32;;
56391;SDS011;42289;53.582;9.714;2022-08-19T14:15:07;9.85;;;7.60;;
56391;SDS011;42289;53.582;9.714;2022-08-19T14:17:38;9.13;;;6.57;;
56391;SDS011;42289;53.582;9.714;2022-08-19T14:20:05;7.50;;;6.03;;
56391;SDS011;42289;53.582;9.714;2022-08-19T14:22:34;8.02;;;6.55;;
56391;SDS011;42289;53.582;9.714;2022-08-19T14:25:01;8.18;;;6.82;;
56391;SDS011;42289;53.582;9.714;2022-08-19T14:27:29;8.60;;;6.68;;
56391;SDS011;42289;53.582;9.714;2022-08-19T14:29:55;7.03;;;5.63;;
56391;SDS011;42289;53.582;9.714;2022-08-19T14:32:22;7.68;;;6.43;;
56391;SDS011;42289;53.582;9.714;2022-08-19T14:34:53;7.82;;;6.53;;
56391;SDS011;42289;53.582;9.714;2022-08-19T14:37:19;7.90;;;6.20;;